sensor_id;sensor_type;location;lat;lon;timestamp;P1;durP1;ratioP1;P2;durP2;ratioP2
17595;SDS011;8916;47.086;15.920;2022-08-02T00:01:05;8.32;;;6.85;;
17595;SDS011;8916;47.086;15.920;2022-08-02T00:03:34;11.95;;;7.20;;
17595;SDS011;8916;47.086;15.920;2022-08-02T00:06:03;8.27;;;6.75;;
17595;SDS011;8916;47.086;15.920;2022-08-02T00:08:33;12.38;;;7.18;;
17595;SDS011;8916;47.086;15.920;2022-08-02T00:11:02;9.25;;;7.65;;
17595;SDS011;8916;47.086;15.920;2022-08-02T00:13:31;7.95;;;7.10;;
17595;SDS011;8916;47.086;15.920;2022-08-02T00:16:00;10.15;;;7.35;;
17595;SDS011;8916;47.086;15.920;2022-08-02T00:18:31;10.73;;;7.32;;
17595;SDS011;8916;47.086;15.920;2022-08-02T00:21:01;10.55;;;7.25;;
17595;SDS011;8916;47.086;15.920;2022-08-02T00:23:30;15.18;;;7.63;;
17595;SDS011;8916;47.086;15.920;2022-08-02T00:26:19;12.38;;;7.65;;
17595;SDS011;8916;47.086;15.920;2022-08-02T00:28:49;10.90;;;7.20;;
17595;SDS011;8916;47.086;15.920;2022-08-02T00:31:18;9.45;;;7.43;;
17595;SDS011;8916;47.086;15.920;2022-08-02T00:33:49;9.35;;;7.53;;
17595;SDS011;8916;47.086;15.920;2022-08-02T00:36:38;8.77;;;7.28;;
17595;SDS011;8916;47.086;15.920;2022-08-02T00:39:07;17.33;;;7.72;;
17595;SDS011;8916;47.086;15.920;2022-08-02T00:41:56;8.98;;;7.40;;
17595;SDS011;8916;47.086;15.920;2022-08-02T00:44:26;9.15;;;7.20;;
17595;SDS011;8916;47.086;15.920;2022-08-02T00:46:55;12.18;;;7.13;;
17595;SDS011;8916;47.086;15.920;2022-08-02T00:49:26;12.82;;;7.55;;
17595;SDS011;8916;47.086;15.920;2022-08-02T00:51:55;8.60;;;6.95;;
17595;SDS011;8916;47.086;15.920;2022-08-02T00:54:24;7.68;;;6.88;;
17595;SDS011;8916;47.086;15.920;2022-08-02T00:56:54;10.95;;;6.72;;
17595;SDS011;8916;47.086;15.920;2022-08-02T00:59:23;9.43;;;6.47;;
17595;SDS011;8916;47.086;15.920;2022-08-02T01:01:52;9.95;;;6.93;;
17595;SDS011;8916;47.086;15.920;2022-08-02T01:04:26;14.65;;;6.68;;
17595;SDS011;8916;47.086;15.920;2022-08-02T01:06:58;10.32;;;6.57;;
17595;SDS011;8916;47.086;15.920;2022-08-02T01:09:40;6.80;;;5.95;;
17595;SDS011;8916;47.086;15.920;2022-08-02T01:12:10;8.98;;;6.72;;
17595;SDS011;8916;47.086;15.920;2022-08-02T01:14:41;11.40;;;6.30;;
17595;SDS011;8916;47.086;15.920;2022-08-02T01:17:14;8.23;;;5.90;;
17595;SDS011;8916;47.086;15.920;2022-08-02T01:20:07;9.90;;;6.28;;
17595;SDS011;8916;47.086;15.920;2022-08-02T01:22:50;7.85;;;6.68;;
17595;SDS011;8916;47.086;15.920;2022-08-02T01:25:43;7.60;;;6.10;;
17595;SDS011;8916;47.086;15.920;2022-08-02T01:28:35;8.65;;;6.32;;
17595;SDS011;8916;47.086;15.920;2022-08-02T01:31:11;8.18;;;6.47;;
17595;SDS011;8916;47.086;15.920;2022-08-02T01:33:47;9.18;;;6.70;;
17595;SDS011;8916;47.086;15.920;2022-08-02T01:36:32;10.18;;;6.65;;
17595;SDS011;8916;47.086;15.920;2022-08-02T01:39:05;10.30;;;6.50;;
17595;SDS011;8916;47.086;15.920;2022-08-02T01:41:53;9.15;;;7.10;;
17595;SDS011;8916;47.086;15.920;2022-08-02T01:44:26;7.43;;;6.28;;
17595;SDS011;8916;47.086;15.920;2022-08-02T01:47:01;8.00;;;5.55;;
17595;SDS011;8916;47.086;15.920;2022-08-02T01:49:33;7.88;;;5.45;;
17595;SDS011;8916;47.086;15.920;2022-08-02T01:52:07;7.60;;;5.72;;
17595;SDS011;8916;47.086;15.920;2022-08-02T01:54:53;8.10;;;5.40;;
17595;SDS011;8916;47.086;15.920;2022-08-02T01:57:29;8.00;;;6.07;;
17595;SDS011;8916;47.086;15.920;2022-08-02T02:00:10;8.77;;;6.55;;
17595;SDS011;8916;47.086;15.920;2022-08-02T02:02:41;10.60;;;6.28;;
17595;SDS011;8916;47.086;15.920;2022-08-02T02:05:14;9.20;;;5.95;;
17595;SDS011;8916;47.086;15.920;2022-08-02T02:07:48;7.82;;;6.70;;
17595;SDS011;8916;47.086;15.920;2022-08-02T02:10:21;7.72;;;6.20;;
17595;SDS011;8916;47.086;15.920;2022-08-02T02:12:55;8.93;;;7.35;;
17595;SDS011;8916;47.086;15.920;2022-08-02T02:15:31;9.65;;;6.63;;
17595;SDS011;8916;47.086;15.920;2022-08-02T02:18:07;10.10;;;6.17;;
17595;SDS011;8916;47.086;15.920;2022-08-02T02:20:40;8.27;;;6.15;;
17595;SDS011;8916;47.086;15.920;2022-08-02T02:23:11;12.73;;;6.18;;
17595;SDS011;8916;47.086;15.920;2022-08-02T02:25:43;7.35;;;5.93;;
17595;SDS011;8916;47.086;15.920;2022-08-02T02:28:16;6.78;;;5.95;;
17595;SDS011;8916;47.086;15.920;2022-08-02T02:30:53;9.40;;;6.10;;
17595;SDS011;8916;47.086;15.920;2022-08-02T02:35:58;6.90;;;6.10;;
17595;SDS011;8916;47.086;15.920;2022-08-02T02:38:30;9.05;;;6.40;;
17595;SDS011;8916;47.086;15.920;2022-08-02T02:41:01;8.88;;;6.13;;
17595;SDS011;8916;47.086;15.920;2022-08-02T02:43:33;8.00;;;6.50;;
17595;SDS011;8916;47.086;15.920;2022-08-02T02:46:06;7.78;;;6.10;;
17595;SDS011;8916;47.086;15.920;2022-08-02T02:48:37;8.63;;;6.47;;
17595;SDS011;8916;47.086;15.920;2022-08-02T02:51:08;7.95;;;5.78;;
17595;SDS011;8916;47.086;15.920;2022-08-02T02:53:40;6.65;;;5.90;;
17595;SDS011;8916;47.086;15.920;2022-08-02T02:56:34;6.72;;;5.05;;
17595;SDS011;8916;47.086;15.920;2022-08-02T02:59:04;8.95;;;5.22;;
17595;SDS011;8916;47.086;15.920;2022-08-02T03:01:37;9.23;;;6.13;;
17595;SDS011;8916;47.086;15.920;2022-08-02T03:04:24;9.35;;;5.60;;
17595;SDS011;8916;47.086;15.920;2022-08-02T03:07:15;6.63;;;5.93;;
17595;SDS011;8916;47.086;15.920;2022-08-02T03:09:45;10.50;;;5.95;;
17595;SDS011;8916;47.086;15.920;2022-08-02T03:12:22;8.90;;;6.05;;
17595;SDS011;8916;47.086;15.920;2022-08-02T03:14:58;10.55;;;5.72;;
17595;SDS011;8916;47.086;15.920;2022-08-02T03:17:40;11.10;;;7.43;;
17595;SDS011;8916;47.086;15.920;2022-08-02T03:20:12;24.55;;;11.95;;
17595;SDS011;8916;47.086;15.920;2022-08-02T03:22:44;19.95;;;10.50;;
17595;SDS011;8916;47.086;15.920;2022-08-02T03:25:14;15.82;;;8.00;;
17595;SDS011;8916;47.086;15.920;2022-08-02T03:27:46;14.02;;;7.35;;
17595;SDS011;8916;47.086;15.920;2022-08-02T03:30:16;14.48;;;8.77;;
17595;SDS011;8916;47.086;15.920;2022-08-02T03:32:47;15.52;;;8.30;;
17595;SDS011;8916;47.086;15.920;2022-08-02T03:35:17;12.43;;;6.68;;
17595;SDS011;8916;47.086;15.920;2022-08-02T03:37:51;16.48;;;8.10;;
17595;SDS011;8916;47.086;15.920;2022-08-02T03:40:21;12.13;;;8.23;;
17595;SDS011;8916;47.086;15.920;2022-08-02T03:42:52;9.55;;;6.53;;
17595;SDS011;8916;47.086;15.920;2022-08-02T03:45:22;8.73;;;5.57;;
17595;SDS011;8916;47.086;15.920;2022-08-02T03:47:54;7.57;;;6.03;;
17595;SDS011;8916;47.086;15.920;2022-08-02T03:50:25;6.90;;;5.72;;
17595;SDS011;8916;47.086;15.920;2022-08-02T03:52:55;7.85;;;5.95;;
17595;SDS011;8916;47.086;15.920;2022-08-02T03:55:25;7.43;;;6.10;;
17595;SDS011;8916;47.086;15.920;2022-08-02T03:57:54;8.20;;;6.03;;
17595;SDS011;8916;47.086;15.920;2022-08-02T04:00:23;11.70;;;6.50;;
17595;SDS011;8916;47.086;15.920;2022-08-02T04:02:54;11.88;;;7.32;;
17595;SDS011;8916;47.086;15.920;2022-08-02T04:05:24;11.43;;;6.95;;
17595;SDS011;8916;47.086;15.920;2022-08-02T04:07:54;11.18;;;7.00;;
17595;SDS011;8916;47.086;15.920;2022-08-02T04:10:43;11.40;;;7.50;;
17595;SDS011;8916;47.086;15.920;2022-08-02T04:13:31;15.73;;;7.65;;
17595;SDS011;8916;47.086;15.920;2022-08-02T04:16:05;11.15;;;7.32;;
17595;SDS011;8916;47.086;15.920;2022-08-02T04:18:42;10.52;;;6.70;;
17595;SDS011;8916;47.086;15.920;2022-08-02T04:21:18;10.18;;;6.72;;
17595;SDS011;8916;47.086;15.920;2022-08-02T04:23:51;11.23;;;6.57;;
17595;SDS011;8916;47.086;15.920;2022-08-02T04:26:23;10.90;;;6.80;;
17595;SDS011;8916;47.086;15.920;2022-08-02T04:28:54;11.95;;;7.53;;
17595;SDS011;8916;47.086;15.920;2022-08-02T04:31:26;11.18;;;6.82;;
17595;SDS011;8916;47.086;15.920;2022-08-02T04:33:57;16.60;;;6.82;;
17595;SDS011;8916;47.086;15.920;2022-08-02T04:36:27;11.23;;;6.22;;
17595;SDS011;8916;47.086;15.920;2022-08-02T04:39:03;9.05;;;5.88;;
17595;SDS011;8916;47.086;15.920;2022-08-02T04:41:36;8.65;;;5.70;;
17595;SDS011;8916;47.086;15.920;2022-08-02T04:44:10;7.22;;;5.43;;
17595;SDS011;8916;47.086;15.920;2022-08-02T04:46:42;9.13;;;6.18;;
17595;SDS011;8916;47.086;15.920;2022-08-02T04:49:14;11.27;;;6.18;;
17595;SDS011;8916;47.086;15.920;2022-08-02T04:51:43;9.63;;;6.20;;
17595;SDS011;8916;47.086;15.920;2022-08-02T04:54:13;9.90;;;6.28;;
17595;SDS011;8916;47.086;15.920;2022-08-02T04:56:42;10.57;;;6.38;;
17595;SDS011;8916;47.086;15.920;2022-08-02T04:59:11;13.02;;;6.22;;
17595;SDS011;8916;47.086;15.920;2022-08-02T05:01:41;11.13;;;6.65;;
17595;SDS011;8916;47.086;15.920;2022-08-02T05:04:11;8.25;;;5.88;;
17595;SDS011;8916;47.086;15.920;2022-08-02T05:06:43;9.38;;;6.10;;
17595;SDS011;8916;47.086;15.920;2022-08-02T05:09:12;11.30;;;6.22;;
17595;SDS011;8916;47.086;15.920;2022-08-02T05:11:42;10.40;;;6.07;;
17595;SDS011;8916;47.086;15.920;2022-08-02T05:14:21;9.18;;;5.90;;
17595;SDS011;8916;47.086;15.920;2022-08-02T05:16:51;7.72;;;5.97;;
17595;SDS011;8916;47.086;15.920;2022-08-02T05:19:22;8.23;;;5.88;;
17595;SDS011;8916;47.086;15.920;2022-08-02T05:21:51;7.45;;;5.70;;
17595;SDS011;8916;47.086;15.920;2022-08-02T05:24:20;8.00;;;5.70;;
17595;SDS011;8916;47.086;15.920;2022-08-02T05:26:49;9.88;;;5.30;;
17595;SDS011;8916;47.086;15.920;2022-08-02T05:29:19;9.32;;;6.05;;
17595;SDS011;8916;47.086;15.920;2022-08-02T05:31:49;10.25;;;5.05;;
17595;SDS011;8916;47.086;15.920;2022-08-02T05:34:18;11.95;;;5.43;;
17595;SDS011;8916;47.086;15.920;2022-08-02T05:36:49;11.60;;;5.88;;
17595;SDS011;8916;47.086;15.920;2022-08-02T05:39:18;5.30;;;4.80;;
17595;SDS011;8916;47.086;15.920;2022-08-02T05:41:49;6.05;;;5.05;;
17595;SDS011;8916;47.086;15.920;2022-08-02T05:44:18;7.32;;;4.97;;
17595;SDS011;8916;47.086;15.920;2022-08-02T05:46:48;7.57;;;4.82;;
17595;SDS011;8916;47.086;15.920;2022-08-02T05:49:17;6.90;;;5.30;;
17595;SDS011;8916;47.086;15.920;2022-08-02T05:51:51;10.68;;;5.35;;
17595;SDS011;8916;47.086;15.920;2022-08-02T05:54:35;9.98;;;5.35;;
17595;SDS011;8916;47.086;15.920;2022-08-02T05:57:15;17.95;;;7.97;;
17595;SDS011;8916;47.086;15.920;2022-08-02T05:59:59;16.00;;;6.60;;
17595;SDS011;8916;47.086;15.920;2022-08-02T06:05:47;15.02;;;6.22;;
17595;SDS011;8916;47.086;15.920;2022-08-02T06:08:30;11.98;;;6.07;;
17595;SDS011;8916;47.086;15.920;2022-08-02T06:11:14;13.63;;;6.07;;
17595;SDS011;8916;47.086;15.920;2022-08-02T06:13:50;11.30;;;6.55;;
17595;SDS011;8916;47.086;15.920;2022-08-02T06:16:20;15.07;;;6.80;;
17595;SDS011;8916;47.086;15.920;2022-08-02T06:18:59;13.10;;;6.40;;
17595;SDS011;8916;47.086;15.920;2022-08-02T06:21:30;14.23;;;6.57;;
17595;SDS011;8916;47.086;15.920;2022-08-02T06:24:26;19.17;;;6.75;;
17595;SDS011;8916;47.086;15.920;2022-08-02T06:27:01;12.25;;;5.80;;
17595;SDS011;8916;47.086;15.920;2022-08-02T06:29:31;8.35;;;5.28;;
17595;SDS011;8916;47.086;15.920;2022-08-02T06:32:05;11.25;;;5.40;;
17595;SDS011;8916;47.086;15.920;2022-08-02T06:34:36;9.00;;;5.65;;
17595;SDS011;8916;47.086;15.920;2022-08-02T06:37:07;13.88;;;6.57;;
17595;SDS011;8916;47.086;15.920;2022-08-02T06:39:46;11.23;;;4.47;;
17595;SDS011;8916;47.086;15.920;2022-08-02T06:42:19;5.75;;;4.53;;
17595;SDS011;8916;47.086;15.920;2022-08-02T06:44:55;7.85;;;4.18;;
17595;SDS011;8916;47.086;15.920;2022-08-02T06:47:25;8.63;;;4.43;;
17595;SDS011;8916;47.086;15.920;2022-08-02T06:49:54;5.60;;;4.15;;
17595;SDS011;8916;47.086;15.920;2022-08-02T06:52:25;6.00;;;3.50;;
17595;SDS011;8916;47.086;15.920;2022-08-02T06:54:59;7.40;;;4.18;;
17595;SDS011;8916;47.086;15.920;2022-08-02T06:57:32;4.28;;;3.30;;
17595;SDS011;8916;47.086;15.920;2022-08-02T07:00:02;4.40;;;3.80;;
17595;SDS011;8916;47.086;15.920;2022-08-02T07:02:35;5.88;;;3.65;;
17595;SDS011;8916;47.086;15.920;2022-08-02T07:05:06;7.03;;;3.75;;
17595;SDS011;8916;47.086;15.920;2022-08-02T07:07:36;9.57;;;4.28;;
17595;SDS011;8916;47.086;15.920;2022-08-02T07:10:07;6.43;;;3.30;;
17595;SDS011;8916;47.086;15.920;2022-08-02T07:12:37;7.70;;;3.70;;
17595;SDS011;8916;47.086;15.920;2022-08-02T07:15:07;4.85;;;3.58;;
17595;SDS011;8916;47.086;15.920;2022-08-02T07:17:38;6.43;;;3.83;;
17595;SDS011;8916;47.086;15.920;2022-08-02T07:20:08;6.65;;;3.75;;
17595;SDS011;8916;47.086;15.920;2022-08-02T07:22:37;8.02;;;4.68;;
17595;SDS011;8916;47.086;15.920;2022-08-02T07:25:08;5.30;;;4.10;;
17595;SDS011;8916;47.086;15.920;2022-08-02T07:27:39;8.68;;;4.00;;
17595;SDS011;8916;47.086;15.920;2022-08-02T07:30:09;6.82;;;4.45;;
17595;SDS011;8916;47.086;15.920;2022-08-02T07:32:39;5.57;;;4.00;;
17595;SDS011;8916;47.086;15.920;2022-08-02T07:35:08;6.05;;;4.35;;
17595;SDS011;8916;47.086;15.920;2022-08-02T07:37:45;5.47;;;4.30;;
17595;SDS011;8916;47.086;15.920;2022-08-02T07:40:26;5.05;;;4.03;;
17595;SDS011;8916;47.086;15.920;2022-08-02T07:42:56;6.00;;;3.80;;
17595;SDS011;8916;47.086;15.920;2022-08-02T07:45:30;4.22;;;3.83;;
17595;SDS011;8916;47.086;15.920;2022-08-02T07:48:11;9.25;;;3.83;;
17595;SDS011;8916;47.086;15.920;2022-08-02T07:50:41;4.70;;;3.78;;
17595;SDS011;8916;47.086;15.920;2022-08-02T07:53:10;5.28;;;3.88;;
17595;SDS011;8916;47.086;15.920;2022-08-02T07:55:40;4.25;;;3.60;;
17595;SDS011;8916;47.086;15.920;2022-08-02T07:58:10;8.65;;;3.72;;
17595;SDS011;8916;47.086;15.920;2022-08-02T08:00:40;5.20;;;3.67;;
17595;SDS011;8916;47.086;15.920;2022-08-02T08:03:10;5.53;;;3.72;;
17595;SDS011;8916;47.086;15.920;2022-08-02T08:05:40;6.82;;;4.32;;
17595;SDS011;8916;47.086;15.920;2022-08-02T08:08:10;11.90;;;6.07;;
17595;SDS011;8916;47.086;15.920;2022-08-02T08:10:45;11.27;;;6.18;;
17595;SDS011;8916;47.086;15.920;2022-08-02T08:13:15;10.20;;;5.70;;
17595;SDS011;8916;47.086;15.920;2022-08-02T08:15:44;13.38;;;5.82;;
17595;SDS011;8916;47.086;15.920;2022-08-02T08:18:19;3.30;;;2.83;;
17595;SDS011;8916;47.086;15.920;2022-08-02T08:20:48;7.45;;;2.72;;
17595;SDS011;8916;47.086;15.920;2022-08-02T08:23:18;3.97;;;2.90;;
17595;SDS011;8916;47.086;15.920;2022-08-02T08:25:49;5.03;;;2.90;;
17595;SDS011;8916;47.086;15.920;2022-08-02T08:28:18;2.88;;;2.42;;
17595;SDS011;8916;47.086;15.920;2022-08-02T08:30:47;4.05;;;2.30;;
17595;SDS011;8916;47.086;15.920;2022-08-02T08:33:17;3.47;;;2.42;;
17595;SDS011;8916;47.086;15.920;2022-08-02T08:35:58;4.10;;;2.42;;
17595;SDS011;8916;47.086;15.920;2022-08-02T08:38:28;4.32;;;2.67;;
17595;SDS011;8916;47.086;15.920;2022-08-02T08:40:59;6.35;;;2.92;;
17595;SDS011;8916;47.086;15.920;2022-08-02T08:43:29;2.97;;;2.22;;
17595;SDS011;8916;47.086;15.920;2022-08-02T08:45:58;3.00;;;2.70;;
17595;SDS011;8916;47.086;15.920;2022-08-02T08:48:28;2.78;;;2.30;;
17595;SDS011;8916;47.086;15.920;2022-08-02T08:51:01;2.97;;;2.40;;
17595;SDS011;8916;47.086;15.920;2022-08-02T08:53:45;3.28;;;2.40;;
17595;SDS011;8916;47.086;15.920;2022-08-02T08:56:18;2.35;;;2.10;;
17595;SDS011;8916;47.086;15.920;2022-08-02T08:58:48;4.00;;;2.10;;
17595;SDS011;8916;47.086;15.920;2022-08-02T09:01:18;3.88;;;2.30;;
17595;SDS011;8916;47.086;15.920;2022-08-02T09:03:47;2.92;;;2.00;;
17595;SDS011;8916;47.086;15.920;2022-08-02T09:06:17;2.33;;;1.92;;
17595;SDS011;8916;47.086;15.920;2022-08-02T09:08:47;3.60;;;1.98;;
17595;SDS011;8916;47.086;15.920;2022-08-02T09:11:18;5.65;;;2.70;;
17595;SDS011;8916;47.086;15.920;2022-08-02T09:13:53;3.42;;;1.95;;
17595;SDS011;8916;47.086;15.920;2022-08-02T09:16:32;3.15;;;2.40;;
17595;SDS011;8916;47.086;15.920;2022-08-02T09:19:16;2.55;;;2.35;;
17595;SDS011;8916;47.086;15.920;2022-08-02T09:21:47;5.20;;;2.30;;
17595;SDS011;8916;47.086;15.920;2022-08-02T09:24:19;2.28;;;2.08;;
17595;SDS011;8916;47.086;15.920;2022-08-02T09:26:51;2.45;;;2.03;;
17595;SDS011;8916;47.086;15.920;2022-08-02T09:29:21;5.20;;;2.30;;
17595;SDS011;8916;47.086;15.920;2022-08-02T09:31:52;2.50;;;2.30;;
17595;SDS011;8916;47.086;15.920;2022-08-02T09:34:42;2.75;;;2.40;;
17595;SDS011;8916;47.086;15.920;2022-08-02T09:37:20;3.13;;;2.28;;
17595;SDS011;8916;47.086;15.920;2022-08-02T09:39:51;2.53;;;2.10;;
17595;SDS011;8916;47.086;15.920;2022-08-02T09:42:27;2.85;;;2.20;;
17595;SDS011;8916;47.086;15.920;2022-08-02T09:44:57;2.60;;;2.00;;
17595;SDS011;8916;47.086;15.920;2022-08-02T09:47:29;2.17;;;1.98;;
17595;SDS011;8916;47.086;15.920;2022-08-02T09:50:03;4.03;;;2.22;;
17595;SDS011;8916;47.086;15.920;2022-08-02T09:52:41;2.58;;;2.20;;
17595;SDS011;8916;47.086;15.920;2022-08-02T09:55:11;2.08;;;1.77;;
17595;SDS011;8916;47.086;15.920;2022-08-02T09:57:42;4.00;;;1.98;;
17595;SDS011;8916;47.086;15.920;2022-08-02T10:00:17;5.75;;;2.60;;
17595;SDS011;8916;47.086;15.920;2022-08-02T10:03:08;2.80;;;2.30;;
17595;SDS011;8916;47.086;15.920;2022-08-02T10:05:49;3.95;;;2.40;;
17595;SDS011;8916;47.086;15.920;2022-08-02T10:08:27;2.55;;;2.10;;
17595;SDS011;8916;47.086;15.920;2022-08-02T10:11:00;2.83;;;2.42;;
17595;SDS011;8916;47.086;15.920;2022-08-02T10:13:32;2.70;;;2.42;;
17595;SDS011;8916;47.086;15.920;2022-08-02T10:16:04;2.72;;;2.17;;
17595;SDS011;8916;47.086;15.920;2022-08-02T10:18:34;2.80;;;2.50;;
17595;SDS011;8916;47.086;15.920;2022-08-02T10:21:09;2.50;;;2.10;;
17595;SDS011;8916;47.086;15.920;2022-08-02T10:23:43;10.82;;;2.92;;
17595;SDS011;8916;47.086;15.920;2022-08-02T10:26:15;2.60;;;2.17;;
17595;SDS011;8916;47.086;15.920;2022-08-02T10:28:50;5.45;;;2.42;;
17595;SDS011;8916;47.086;15.920;2022-08-02T10:31:22;4.43;;;2.20;;
17595;SDS011;8916;47.086;15.920;2022-08-02T10:33:57;5.18;;;2.45;;
17595;SDS011;8916;47.086;15.920;2022-08-02T10:36:30;2.85;;;2.25;;
17595;SDS011;8916;47.086;15.920;2022-08-02T10:39:02;3.38;;;2.15;;
17595;SDS011;8916;47.086;15.920;2022-08-02T10:41:39;5.07;;;2.10;;
17595;SDS011;8916;47.086;15.920;2022-08-02T10:44:22;5.20;;;2.50;;
17595;SDS011;8916;47.086;15.920;2022-08-02T10:49:53;2.55;;;2.30;;
17595;SDS011;8916;47.086;15.920;2022-08-02T10:52:24;3.00;;;2.30;;
17595;SDS011;8916;47.086;15.920;2022-08-02T10:54:56;3.72;;;2.45;;
17595;SDS011;8916;47.086;15.920;2022-08-02T10:57:28;3.72;;;2.30;;
17595;SDS011;8916;47.086;15.920;2022-08-02T11:00:08;3.85;;;2.58;;
17595;SDS011;8916;47.086;15.920;2022-08-02T11:02:45;2.60;;;2.10;;
17595;SDS011;8916;47.086;15.920;2022-08-02T11:05:26;5.43;;;3.22;;
17595;SDS011;8916;47.086;15.920;2022-08-02T11:08:16;2.50;;;2.30;;
17595;SDS011;8916;47.086;15.920;2022-08-02T11:10:47;2.20;;;2.00;;
17595;SDS011;8916;47.086;15.920;2022-08-02T11:13:17;3.03;;;2.20;;
17595;SDS011;8916;47.086;15.920;2022-08-02T11:15:58;2.08;;;1.98;;
17595;SDS011;8916;47.086;15.920;2022-08-02T11:21:33;2.45;;;2.00;;
17595;SDS011;8916;47.086;15.920;2022-08-02T11:26:57;2.42;;;2.00;;
17595;SDS011;8916;47.086;15.920;2022-08-02T11:29:32;2.20;;;2.00;;
17595;SDS011;8916;47.086;15.920;2022-08-02T11:32:07;2.55;;;2.10;;
17595;SDS011;8916;47.086;15.920;2022-08-02T11:34:44;3.08;;;2.05;;
17595;SDS011;8916;47.086;15.920;2022-08-02T11:37:26;2.45;;;2.10;;
17595;SDS011;8916;47.086;15.920;2022-08-02T11:39:56;2.95;;;1.90;;
17595;SDS011;8916;47.086;15.920;2022-08-02T11:42:30;2.47;;;1.90;;
17595;SDS011;8916;47.086;15.920;2022-08-02T11:45:00;2.60;;;1.90;;
17595;SDS011;8916;47.086;15.920;2022-08-02T11:47:31;3.45;;;1.75;;
17595;SDS011;8916;47.086;15.920;2022-08-02T11:50:04;2.05;;;1.80;;
17595;SDS011;8916;47.086;15.920;2022-08-02T11:52:35;2.20;;;1.80;;
17595;SDS011;8916;47.086;15.920;2022-08-02T11:55:06;2.33;;;1.80;;
17595;SDS011;8916;47.086;15.920;2022-08-02T11:57:37;2.05;;;1.80;;
17595;SDS011;8916;47.086;15.920;2022-08-02T12:00:27;2.25;;;1.90;;
17595;SDS011;8916;47.086;15.920;2022-08-02T12:02:58;1.65;;;1.55;;
17595;SDS011;8916;47.086;15.920;2022-08-02T12:05:28;2.08;;;1.88;;
17595;SDS011;8916;47.086;15.920;2022-08-02T12:08:18;1.75;;;1.65;;
17595;SDS011;8916;47.086;15.920;2022-08-02T12:10:51;2.22;;;1.67;;
17595;SDS011;8916;47.086;15.920;2022-08-02T12:13:21;6.53;;;1.95;;
17595;SDS011;8916;47.086;15.920;2022-08-02T12:15:50;2.85;;;1.58;;
17595;SDS011;8916;47.086;15.920;2022-08-02T12:18:21;3.28;;;1.63;;
17595;SDS011;8916;47.086;15.920;2022-08-02T12:21:19;2.20;;;2.00;;
17595;SDS011;8916;47.086;15.920;2022-08-02T12:23:50;3.70;;;1.65;;
17595;SDS011;8916;47.086;15.920;2022-08-02T12:26:27;2.85;;;1.90;;
17595;SDS011;8916;47.086;15.920;2022-08-02T12:28:59;3.33;;;1.75;;
17595;SDS011;8916;47.086;15.920;2022-08-02T12:31:38;3.17;;;1.80;;
17595;SDS011;8916;47.086;15.920;2022-08-02T12:34:26;4.38;;;1.95;;
17595;SDS011;8916;47.086;15.920;2022-08-02T12:36:59;3.13;;;1.80;;
17595;SDS011;8916;47.086;15.920;2022-08-02T12:39:35;2.30;;;1.80;;
17595;SDS011;8916;47.086;15.920;2022-08-02T12:42:09;2.00;;;1.80;;
17595;SDS011;8916;47.086;15.920;2022-08-02T12:44:49;3.65;;;1.80;;
17595;SDS011;8916;47.086;15.920;2022-08-02T12:47:20;4.80;;;1.80;;
17595;SDS011;8916;47.086;15.920;2022-08-02T12:50:11;4.85;;;1.60;;
17595;SDS011;8916;47.086;15.920;2022-08-02T12:52:43;1.67;;;1.50;;
17595;SDS011;8916;47.086;15.920;2022-08-02T12:55:14;3.25;;;1.52;;
17595;SDS011;8916;47.086;15.920;2022-08-02T12:57:53;1.75;;;1.65;;
17595;SDS011;8916;47.086;15.920;2022-08-02T13:00:25;1.88;;;1.60;;
17595;SDS011;8916;47.086;15.920;2022-08-02T13:02:58;1.92;;;1.58;;
17595;SDS011;8916;47.086;15.920;2022-08-02T13:05:30;1.98;;;1.73;;
17595;SDS011;8916;47.086;15.920;2022-08-02T13:08:22;7.82;;;1.80;;
17595;SDS011;8916;47.086;15.920;2022-08-02T13:10:51;2.88;;;1.90;;
17595;SDS011;8916;47.086;15.920;2022-08-02T13:13:20;3.63;;;1.85;;
17595;SDS011;8916;47.086;15.920;2022-08-02T13:15:49;3.45;;;1.80;;
17595;SDS011;8916;47.086;15.920;2022-08-02T13:18:19;4.07;;;2.00;;
17595;SDS011;8916;47.086;15.920;2022-08-02T13:20:50;2.20;;;1.50;;
17595;SDS011;8916;47.086;15.920;2022-08-02T13:23:19;2.50;;;1.63;;
17595;SDS011;8916;47.086;15.920;2022-08-02T13:26:10;3.05;;;1.90;;
17595;SDS011;8916;47.086;15.920;2022-08-02T13:28:39;2.00;;;1.40;;
17595;SDS011;8916;47.086;15.920;2022-08-02T13:31:10;2.13;;;1.70;;
17595;SDS011;8916;47.086;15.920;2022-08-02T13:33:59;2.28;;;1.67;;
17595;SDS011;8916;47.086;15.920;2022-08-02T13:36:30;3.63;;;1.70;;
17595;SDS011;8916;47.086;15.920;2022-08-02T13:39:03;2.05;;;1.75;;
17595;SDS011;8916;47.086;15.920;2022-08-02T13:41:35;3.22;;;1.60;;
17595;SDS011;8916;47.086;15.920;2022-08-02T13:44:07;3.13;;;1.60;;
17595;SDS011;8916;47.086;15.920;2022-08-02T13:46:37;2.15;;;1.83;;
17595;SDS011;8916;47.086;15.920;2022-08-02T13:49:13;2.85;;;1.38;;
17595;SDS011;8916;47.086;15.920;2022-08-02T13:51:47;3.17;;;1.70;;
17595;SDS011;8916;47.086;15.920;2022-08-02T13:54:16;2.35;;;1.60;;
17595;SDS011;8916;47.086;15.920;2022-08-02T13:56:46;2.83;;;1.52;;
17595;SDS011;8916;47.086;15.920;2022-08-02T13:59:15;3.60;;;1.77;;
17595;SDS011;8916;47.086;15.920;2022-08-02T14:02:05;2.05;;;1.85;;
17595;SDS011;8916;47.086;15.920;2022-08-02T14:04:34;3.72;;;1.85;;
17595;SDS011;8916;47.086;15.920;2022-08-02T14:07:06;1.80;;;1.65;;
17595;SDS011;8916;47.086;15.920;2022-08-02T14:09:35;1.95;;;1.60;;
17595;SDS011;8916;47.086;15.920;2022-08-02T14:12:06;3.25;;;2.00;;
17595;SDS011;8916;47.086;15.920;2022-08-02T14:14:37;2.63;;;1.60;;
17595;SDS011;8916;47.086;15.920;2022-08-02T14:17:06;2.17;;;1.70;;
17595;SDS011;8916;47.086;15.920;2022-08-02T14:19:37;1.65;;;1.55;;
17595;SDS011;8916;47.086;15.920;2022-08-02T14:22:08;2.63;;;1.40;;
17595;SDS011;8916;47.086;15.920;2022-08-02T14:24:38;1.55;;;1.45;;
17595;SDS011;8916;47.086;15.920;2022-08-02T14:27:08;1.75;;;1.65;;
17595;SDS011;8916;47.086;15.920;2022-08-02T14:29:38;1.73;;;1.60;;
17595;SDS011;8916;47.086;15.920;2022-08-02T14:32:07;3.53;;;1.67;;
17595;SDS011;8916;47.086;15.920;2022-08-02T14:34:37;2.20;;;1.70;;
17595;SDS011;8916;47.086;15.920;2022-08-02T14:37:08;1.90;;;1.80;;
17595;SDS011;8916;47.086;15.920;2022-08-02T14:39:38;2.40;;;1.70;;
17595;SDS011;8916;47.086;15.920;2022-08-02T14:42:26;4.50;;;1.80;;
17595;SDS011;8916;47.086;15.920;2022-08-02T14:44:56;4.28;;;2.00;;
17595;SDS011;8916;47.086;15.920;2022-08-02T14:47:25;4.80;;;2.75;;
17595;SDS011;8916;47.086;15.920;2022-08-02T14:49:54;4.10;;;2.90;;
17595;SDS011;8916;47.086;15.920;2022-08-02T14:52:25;3.42;;;2.25;;
17595;SDS011;8916;47.086;15.920;2022-08-02T14:54:54;3.25;;;2.50;;
17595;SDS011;8916;47.086;15.920;2022-08-02T14:57:24;5.55;;;2.80;;
17595;SDS011;8916;47.086;15.920;2022-08-02T14:59:53;4.00;;;2.75;;
17595;SDS011;8916;47.086;15.920;2022-08-02T15:02:23;2.67;;;2.42;;
17595;SDS011;8916;47.086;15.920;2022-08-02T15:04:52;5.13;;;2.70;;
17595;SDS011;8916;47.086;15.920;2022-08-02T15:07:21;6.30;;;2.65;;
17595;SDS011;8916;47.086;15.920;2022-08-02T15:09:52;4.15;;;2.20;;
17595;SDS011;8916;47.086;15.920;2022-08-02T15:12:22;3.53;;;2.42;;
17595;SDS011;8916;47.086;15.920;2022-08-02T15:14:51;3.42;;;2.45;;
17595;SDS011;8916;47.086;15.920;2022-08-02T15:19:53;6.40;;;2.38;;
17595;SDS011;8916;47.086;15.920;2022-08-02T15:22:31;3.80;;;2.50;;
17595;SDS011;8916;47.086;15.920;2022-08-02T15:25:04;3.22;;;2.65;;
17595;SDS011;8916;47.086;15.920;2022-08-02T15:27:41;7.95;;;2.78;;
17595;SDS011;8916;47.086;15.920;2022-08-02T15:30:11;3.65;;;2.42;;
17595;SDS011;8916;47.086;15.920;2022-08-02T15:32:42;3.30;;;2.30;;
17595;SDS011;8916;47.086;15.920;2022-08-02T15:35:25;3.08;;;2.10;;
17595;SDS011;8916;47.086;15.920;2022-08-02T15:37:59;2.50;;;2.30;;
17595;SDS011;8916;47.086;15.920;2022-08-02T15:40:30;3.60;;;2.13;;